createdAt,value
2023-05-07T00:00:23.015Z,100958.56
2023-05-07T00:03:16.791Z,100958.23
2023-05-07T00:05:50.878Z,100956.31
2023-05-07T00:08:24.885Z,100956.91
2023-05-07T00:10:58.881Z,100956.42
2023-05-07T00:13:36.783Z,100956.05
2023-05-07T00:16:10.972Z,100955.93
2023-05-07T00:18:44.319Z,100961.48
2023-05-07T00:21:17.926Z,100965.71
2023-05-07T00:23:51.759Z,100968.41
2023-05-07T00:26:25.280Z,100970.06
2023-05-07T00:28:58.874Z,100971.26
2023-05-07T00:31:32.512Z,100969.82
2023-05-07T00:34:05.845Z,100967.09
2023-05-07T00:36:39.427Z,100965.81
2023-05-07T00:39:13.039Z,100967.98
2023-05-07T00:41:46.316Z,100969.58
2023-05-07T00:44:20.567Z,100972.61
2023-05-07T00:46:54.008Z,100974.63
2023-05-07T00:49:34.445Z,100978.89
2023-05-07T00:52:09.484Z,100981.69
2023-05-07T00:54:43.924Z,100983.77
2023-05-07T00:57:17.947Z,100990.47
2023-05-07T00:59:51.846Z,100993.07
2023-05-07T01:02:25.255Z,100995.20
2023-05-07T01:04:59.575Z,100993.78
2023-05-07T01:07:34.714Z,100992.53
2023-05-07T01:10:10.449Z,100989.23
2023-05-07T01:12:44.923Z,100990.64
2023-05-07T01:15:19.105Z,100990.98
2023-05-07T01:17:53.065Z,100996.07
2023-05-07T01:20:32.966Z,100990.79
2023-05-07T01:23:09.598Z,100995.11
2023-05-07T01:25:42.757Z,100999.45
2023-05-07T01:28:17.172Z,100997.81
2023-05-07T01:30:57.031Z,100998.91
2023-05-07T01:33:34.307Z,100999.09
2023-05-07T01:36:10.239Z,101001.70
2023-05-07T01:38:44.891Z,101001.73
2023-05-07T01:41:18.633Z,101000.52
2023-05-07T01:43:53.200Z,101004.11
2023-05-07T01:46:27.485Z,101005.56
2023-05-07T01:49:01.328Z,101004.88
2023-05-07T01:51:36.116Z,101000.98
2023-05-07T01:54:09.754Z,100997.23
2023-05-07T01:56:44.762Z,100997.20
2023-05-07T01:59:18.883Z,100999.61
2023-05-07T02:01:52.409Z,100995.27
2023-05-07T02:04:26.155Z,100993.83
2023-05-07T02:07:00.710Z,100991.27
2023-05-07T02:09:34.735Z,100988.95
2023-05-07T02:12:09.185Z,100988.48
2023-05-07T02:14:42.758Z,100988.02
2023-05-07T02:17:16.525Z,100987.69
2023-05-07T02:19:50.123Z,100990.98
2023-05-07T02:22:23.436Z,100993.58
2023-05-07T02:24:57.278Z,100996.74
2023-05-07T02:27:30.849Z,100995.79
2023-05-07T02:30:04.442Z,100996.69
2023-05-07T02:32:38.394Z,101000.12
2023-05-07T02:35:12.895Z,101001.82
2023-05-07T02:37:46.871Z,101002.66
2023-05-07T02:40:21.594Z,101004.02
2023-05-07T02:42:55.342Z,101000.42
2023-05-07T02:45:29.443Z,101003.73
2023-05-07T02:48:02.837Z,101008.64
2023-05-07T02:50:36.794Z,101014.18
2023-05-07T02:53:10.568Z,101015.76
2023-05-07T02:55:44.334Z,101016.80
2023-05-07T02:58:18.072Z,101018.30
2023-05-07T03:00:51.583Z,101019.16
2023-05-07T03:03:47.429Z,101019.13
2023-05-07T03:06:21.236Z,101017.34
2023-05-07T03:08:54.908Z,101019.33
2023-05-07T03:11:28.380Z,101020.26
2023-05-07T03:14:02.140Z,101021.13
2023-05-07T03:16:35.722Z,101018.34
2023-05-07T03:19:09.226Z,101021.55
2023-05-07T03:21:42.730Z,101024.30
2023-05-07T03:24:16.728Z,101030.36
2023-05-07T03:26:50.289Z,101036.85
2023-05-07T03:29:23.807Z,101039.09
2023-05-07T03:31:57.484Z,101041.84
2023-05-07T03:34:31.341Z,101045.55
2023-05-07T03:37:05.446Z,101049.55
2023-05-07T03:39:38.958Z,101051.89
2023-05-07T03:42:12.846Z,101054.92
2023-05-07T03:44:49.852Z,101056.34
2023-05-07T03:47:24.025Z,101060.71
2023-05-07T03:49:58.258Z,101062.80
2023-05-07T03:52:32.156Z,101063.85
2023-05-07T03:55:07.374Z,101067.64
2023-05-07T03:57:41.771Z,101069.77
2023-05-07T04:00:17.744Z,101071.89
2023-05-07T04:02:54.753Z,101072.71
2023-05-07T04:05:31.707Z,101069.55
2023-05-07T04:08:09.029Z,101071.17
2023-05-07T04:10:46.417Z,101078.13
2023-05-07T04:13:20.296Z,101082.42
2023-05-07T04:15:54.008Z,101082.70
2023-05-07T04:18:28.213Z,101082.70
2023-05-07T04:21:02.112Z,101090.76
2023-05-07T04:23:35.930Z,101097.19
2023-05-07T04:26:10.252Z,101096.13
2023-05-07T04:28:46.964Z,101094.71
2023-05-07T04:31:22.872Z,101097.67
2023-05-07T04:33:58.734Z,101103.10
2023-05-07T04:36:34.487Z,101102.55
2023-05-07T04:39:12.016Z,101113.21
2023-05-07T04:41:46.567Z,101113.35
2023-05-07T04:44:20.403Z,101110.30
2023-05-07T04:46:56.149Z,101110.34
2023-05-07T04:49:29.581Z,101107.99
2023-05-07T04:52:04.732Z,101110.50
2023-05-07T04:54:39.218Z,101115.33
2023-05-07T04:57:13.017Z,101117.45
2023-05-07T04:59:47.137Z,101125.56
2023-05-07T05:02:21.040Z,101124.86
2023-05-07T05:04:55.308Z,101127.85
2023-05-07T05:07:30.284Z,101130.17
2023-05-07T05:10:04.498Z,101135.13
2023-05-07T05:12:38.240Z,101136.71
2023-05-07T05:15:13.655Z,101133.03
2023-05-07T05:17:47.471Z,101134.72
2023-05-07T05:20:21.707Z,101138.24
2023-05-07T05:22:55.460Z,101139.84
2023-05-07T05:25:30.053Z,101140.04
2023-05-07T05:28:04.392Z,101143.46
2023-05-07T05:30:39.030Z,101139.86
2023-05-07T05:33:12.832Z,101139.98
2023-05-07T05:35:46.334Z,101142.70
2023-05-07T05:38:20.570Z,101145.49
2023-05-07T05:40:56.539Z,101147.39
2023-05-07T05:43:31.328Z,101148.20
2023-05-07T05:46:06.031Z,101153.84
2023-05-07T05:48:39.708Z,101156.19
2023-05-07T05:51:13.667Z,101160.92
2023-05-07T05:53:47.134Z,101159.85
2023-05-07T05:56:22.577Z,101162.68
2023-05-07T05:58:56.365Z,101168.79
2023-05-07T06:01:30.319Z,101172.05
2023-05-07T06:04:04.404Z,101175.33
2023-05-07T06:06:38.005Z,101176.97
2023-05-07T06:09:11.927Z,101180.34
2023-05-07T06:11:48.920Z,101183.64
2023-05-07T06:14:22.821Z,101187.02
2023-05-07T06:16:56.908Z,101186.21
2023-05-07T06:19:31.174Z,101188.45
2023-05-07T06:22:05.371Z,101185.29
2023-05-07T06:24:39.235Z,101187.77
2023-05-07T06:27:13.613Z,101191.15
2023-05-07T06:29:47.602Z,101190.46
2023-05-07T06:32:23.583Z,101188.75
2023-05-07T06:34:57.444Z,101193.48
2023-05-07T06:37:31.449Z,101196.30
2023-05-07T06:40:11.847Z,101194.09
2023-05-07T06:42:46.273Z,101192.70
2023-05-07T06:45:34.746Z,101189.14
2023-05-07T06:48:09.444Z,101183.41
2023-05-07T06:50:51.387Z,101186.81
2023-05-07T06:53:25.300Z,101187.27
2023-05-07T06:55:59.417Z,101193.94
2023-05-07T06:58:33.385Z,101200.15
2023-05-07T07:01:07.950Z,101199.30
2023-05-07T07:03:42.383Z,101202.33
2023-05-07T07:06:15.803Z,101208.48
2023-05-07T07:08:49.992Z,101209.70
2023-05-07T07:11:24.185Z,101207.38
2023-05-07T07:13:58.055Z,101204.95
2023-05-07T07:16:31.513Z,101206.81
2023-05-07T07:19:05.773Z,101209.86
2023-05-07T07:21:39.606Z,101213.86
2023-05-07T07:24:13.080Z,101212.14
2023-05-07T07:26:47.014Z,101215.16
2023-05-07T07:29:21.336Z,101217.65
2023-05-07T07:31:55.453Z,101220.65
2023-05-07T07:34:29.019Z,101226.05
2023-05-07T07:37:06.738Z,101225.13
2023-05-07T07:39:40.859Z,101228.14
2023-05-07T07:42:15.068Z,101230.40
2023-05-07T07:44:48.535Z,101229.45
2023-05-07T07:47:22.454Z,101230.31
2023-05-07T07:49:56.066Z,101232.11
2023-05-07T07:52:30.291Z,101229.34
2023-05-07T07:55:04.610Z,101229.77
2023-05-07T07:57:38.193Z,101231.95
2023-05-07T08:00:13.931Z,101228.47
2023-05-07T08:02:51.521Z,101230.64
2023-05-07T08:05:30.790Z,101229.61
2023-05-07T08:08:05.807Z,101231.63
2023-05-07T08:10:41.114Z,101239.77
2023-05-07T08:13:20.173Z,101245.43
2023-05-07T08:15:54.093Z,101249.30
2023-05-07T08:18:30.662Z,101253.88
2023-05-07T08:21:05.562Z,101249.33
2023-05-07T08:23:39.526Z,101252.25
2023-05-07T08:26:14.234Z,101248.69
2023-05-07T08:28:48.310Z,101246.77
2023-05-07T08:31:22.198Z,101249.34
2023-05-07T08:33:56.395Z,101245.41
2023-05-07T08:36:30.260Z,101245.77
2023-05-07T08:39:03.997Z,101247.58
2023-05-07T08:41:38.865Z,101243.48
2023-05-07T08:44:16.554Z,101239.88
2023-05-07T08:46:55.465Z,101240.66
2023-05-07T08:49:30.151Z,101243.29
2023-05-07T08:52:04.185Z,101249.62
2023-05-07T08:54:39.702Z,101249.95
2023-05-07T08:57:14.477Z,101247.15
2023-05-07T08:59:48.432Z,101254.46
2023-05-07T09:02:22.807Z,101252.00
2023-05-07T09:04:57.048Z,101253.92
2023-05-07T09:07:31.241Z,101254.91
2023-05-07T09:10:08.956Z,101261.16
2023-05-07T09:12:43.191Z,101263.36
2023-05-07T09:15:17.810Z,101268.26
2023-05-07T09:17:52.149Z,101273.29
2023-05-07T09:20:26.272Z,101276.95
2023-05-07T09:23:01.594Z,101268.48
2023-05-07T09:25:37.678Z,101274.92
2023-05-07T09:28:17.075Z,101277.35
2023-05-07T09:30:51.993Z,101278.61
2023-05-07T09:33:29.856Z,101285.42
2023-05-07T09:36:07.180Z,101288.20
2023-05-07T09:38:42.794Z,101292.39
2023-05-07T09:41:17.246Z,101291.75
2023-05-07T09:44:01.726Z,101297.91
2023-05-07T09:46:39.131Z,101294.52
2023-05-07T09:49:26.288Z,101284.23
2023-05-07T09:52:10.244Z,101287.14
2023-05-07T09:54:48.544Z,101288.08
2023-05-07T09:57:25.454Z,101291.55
2023-05-07T10:00:05.769Z,101294.44
2023-05-07T10:02:49.805Z,101300.52
2023-05-07T10:05:26.624Z,101305.89
2023-05-07T10:08:04.563Z,101304.66
2023-05-07T10:10:40.241Z,101316.50
2023-05-07T10:13:16.638Z,101318.37
2023-05-07T10:15:54.697Z,101316.20
2023-05-07T10:18:34.450Z,101322.57
2023-05-07T10:21:21.261Z,101324.13
2023-05-07T10:24:03.017Z,101325.80
2023-05-07T10:26:39.125Z,101325.11
2023-05-07T10:29:25.501Z,101325.60
2023-05-07T10:32:10.397Z,101325.17
2023-05-07T10:34:48.099Z,101321.96
2023-05-07T10:37:23.683Z,101321.56
2023-05-07T10:39:58.988Z,101322.58
2023-05-07T10:42:33.148Z,101323.34
2023-05-07T10:45:18.148Z,101323.39
2023-05-07T10:51:24.549Z,101334.83
2023-05-07T10:54:29.910Z,101338.34
2023-05-07T10:57:38.381Z,101337.79
2023-05-07T11:00:43.245Z,101334.41
2023-05-07T11:03:20.245Z,101335.31
2023-05-07T11:06:19.590Z,101337.66
2023-05-07T11:09:08.799Z,101340.60
2023-05-07T11:11:53.262Z,101344.94
2023-05-07T11:14:53.109Z,101344.65
2023-05-07T11:17:36.421Z,101349.40
2023-05-07T11:20:14.100Z,101351.47
2023-05-07T11:22:58.367Z,101351.94
2023-05-07T11:25:42.479Z,101352.71
2023-05-07T11:28:25.249Z,101351.91
2023-05-07T11:31:09.268Z,101343.44
2023-05-07T11:33:43.520Z,101340.33
2023-05-07T11:36:20.624Z,101340.50
2023-05-07T11:38:54.736Z,101344.32
2023-05-07T11:41:38.819Z,101350.40
2023-05-07T11:44:12.486Z,101343.95
2023-05-07T11:46:47.920Z,101345.39
2023-05-07T11:49:21.819Z,101347.12
2023-05-07T11:51:56.339Z,101349.52
2023-05-07T11:54:37.592Z,101345.08
2023-05-07T11:57:17.372Z,101342.58
2023-05-07T11:59:55.568Z,101347.73
2023-05-07T12:02:29.597Z,101348.20
2023-05-07T12:05:05.415Z,101343.48
2023-05-07T12:07:39.457Z,101346.02
2023-05-07T12:10:16.209Z,101342.71
2023-05-07T12:12:51.736Z,101343.63
2023-05-07T12:15:29.375Z,101345.89
2023-05-07T12:18:04.009Z,101352.73
2023-05-07T12:20:38.823Z,101357.05
2023-05-07T12:23:13.170Z,101362.41
2023-05-07T12:25:49.199Z,101365.68
2023-05-07T12:28:23.633Z,101365.19
2023-05-07T12:30:58.077Z,101364.21
2023-05-07T12:33:33.047Z,101365.14
2023-05-07T12:36:09.786Z,101370.95
2023-05-07T12:38:43.724Z,101369.39
2023-05-07T12:41:18.559Z,101372.18
2023-05-07T12:43:52.444Z,101367.93
2023-05-07T12:46:26.116Z,101375.52
2023-05-07T12:48:59.659Z,101377.15
2023-05-07T12:51:33.983Z,101381.52
2023-05-07T12:54:07.904Z,101374.63
2023-05-07T12:56:42.475Z,101373.86
2023-05-07T12:59:16.216Z,101377.79
2023-05-07T13:01:50.694Z,101376.37
2023-05-07T13:04:27.293Z,101379.27
2023-05-07T13:07:01.497Z,101377.56
2023-05-07T13:09:35.502Z,101373.55
2023-05-07T13:12:09.807Z,101372.70
2023-05-07T13:14:43.486Z,101367.42
2023-05-07T13:17:17.176Z,101366.06
2023-05-07T13:19:51.412Z,101372.48
2023-05-07T13:22:25.053Z,101374.02
2023-05-07T13:24:58.765Z,101372.30
2023-05-07T13:27:32.762Z,101372.66
2023-05-07T13:30:06.790Z,101374.58
2023-05-07T13:32:40.629Z,101370.40
2023-05-07T13:35:14.462Z,101370.90
2023-05-07T13:37:49.604Z,101372.11
2023-05-07T13:40:23.261Z,101366.92
2023-05-07T13:42:59.842Z,101368.26
2023-05-07T13:45:33.472Z,101368.23
2023-05-07T13:48:07.806Z,101369.55
2023-05-07T13:50:41.351Z,101369.60
2023-05-07T13:53:17.097Z,101365.41
2023-05-07T13:55:51.142Z,101371.21
2023-05-07T13:58:25.910Z,101371.06
2023-05-07T14:00:59.500Z,101373.71
2023-05-07T14:03:34.384Z,101371.29
2023-05-07T14:06:08.947Z,101369.54
2023-05-07T14:08:42.605Z,101374.23
2023-05-07T14:11:16.121Z,101377.31
2023-05-07T14:13:49.846Z,101376.44
2023-05-07T14:16:23.552Z,101376.95
2023-05-07T14:18:58.469Z,101377.34
2023-05-07T14:21:33.418Z,101378.59
2023-05-07T14:24:08.626Z,101379.32
2023-05-07T14:26:42.210Z,101380.37
2023-05-07T14:29:17.041Z,101376.00
2023-05-07T14:31:50.555Z,101376.41
2023-05-07T14:34:24.054Z,101375.02
2023-05-07T14:36:58.062Z,101371.84
2023-05-07T14:39:32.304Z,101377.61
2023-05-07T14:42:06.068Z,101383.07
2023-05-07T14:44:41.983Z,101383.31
2023-05-07T14:47:18.340Z,101386.45
2023-05-07T14:49:54.412Z,101387.36
2023-05-07T14:52:28.067Z,101387.95
2023-05-07T14:55:01.580Z,101392.09
2023-05-07T14:57:36.449Z,101385.27
2023-05-07T15:00:12.610Z,101386.64
2023-05-07T15:02:46.530Z,101386.04
2023-05-07T15:05:21.280Z,101383.95
2023-05-07T15:07:57.553Z,101388.41
2023-05-07T15:10:31.582Z,101386.96
2023-05-07T15:13:05.901Z,101385.75
2023-05-07T15:15:39.650Z,101389.52
2023-05-07T15:18:13.514Z,101389.89
2023-05-07T15:20:47.601Z,101385.52
2023-05-07T15:23:21.372Z,101389.92
2023-05-07T15:25:56.453Z,101387.15
2023-05-07T15:28:30.064Z,101392.07
2023-05-07T15:31:04.674Z,101395.73
2023-05-07T15:33:38.291Z,101398.64
2023-05-07T15:36:12.699Z,101395.45
2023-05-07T15:38:46.621Z,101392.09
2023-05-07T15:41:21.822Z,101392.01
2023-05-07T15:43:56.619Z,101394.58
2023-05-07T15:46:30.304Z,101393.08
2023-05-07T15:49:06.523Z,101393.89
2023-05-07T15:51:40.413Z,101394.38
2023-05-07T15:54:14.757Z,101395.96
2023-05-07T15:56:48.804Z,101395.39
2023-05-07T15:59:22.953Z,101395.71
2023-05-07T16:01:56.533Z,101395.23
2023-05-07T16:04:30.692Z,101393.30
2023-05-07T16:07:04.295Z,101393.52
2023-05-07T16:09:38.407Z,101392.69
2023-05-07T16:12:12.216Z,101393.13
2023-05-07T16:14:46.060Z,101391.73
2023-05-07T16:17:19.748Z,101392.86
2023-05-07T16:19:53.923Z,101394.15
2023-05-07T16:22:29.741Z,101397.58
2023-05-07T16:25:05.167Z,101394.36
2023-05-07T16:27:39.098Z,101393.31
2023-05-07T16:30:14.376Z,101389.06
2023-05-07T16:32:48.089Z,101390.54
2023-05-07T16:35:21.669Z,101391.91
2023-05-07T16:37:55.366Z,101396.48
2023-05-07T16:40:29.746Z,101395.29
2023-05-07T16:43:04.320Z,101395.44
2023-05-07T16:45:37.928Z,101404.60
2023-05-07T16:48:12.365Z,101403.77
2023-05-07T16:50:46.220Z,101404.56
2023-05-07T16:53:20.828Z,101402.45
2023-05-07T16:55:56.807Z,101405.79
2023-05-07T16:58:30.647Z,101407.79
2023-05-07T17:01:05.418Z,101404.60
2023-05-07T17:03:39.280Z,101404.65
2023-05-07T17:06:15.502Z,101403.56
2023-05-07T17:08:48.856Z,101407.41
2023-05-07T17:11:22.892Z,101410.11
2023-05-07T17:13:56.622Z,101408.96
2023-05-07T17:16:30.348Z,101405.65
2023-05-07T17:19:04.560Z,101408.23
2023-05-07T17:21:38.576Z,101407.23
2023-05-07T17:24:12.707Z,101410.48
2023-05-07T17:26:46.068Z,101418.65
2023-05-07T17:29:20.298Z,101418.28
2023-05-07T17:31:54.103Z,101423.60
2023-05-07T17:34:27.761Z,101425.02
2023-05-07T17:37:01.966Z,101429.61
2023-05-07T17:39:35.506Z,101431.75
2023-05-07T17:42:09.571Z,101437.09
2023-05-07T17:44:43.531Z,101442.13
2023-05-07T17:47:16.971Z,101443.43
2023-05-07T17:49:50.612Z,101442.88
2023-05-07T17:52:24.540Z,101445.90
2023-05-07T17:54:58.320Z,101446.75
2023-05-07T17:57:32.632Z,101446.72
2023-05-07T18:00:10.394Z,101448.88
2023-05-07T18:02:45.233Z,101453.38
2023-05-07T18:05:20.273Z,101455.85
2023-05-07T18:07:54.162Z,101458.42
2023-05-07T18:10:27.964Z,101467.98
2023-05-07T18:13:01.612Z,101469.00
2023-05-07T18:15:35.445Z,101469.01
2023-05-07T18:18:10.381Z,101474.78
2023-05-07T18:20:44.093Z,101472.41
2023-05-07T18:23:17.944Z,101474.68
2023-05-07T18:25:51.931Z,101478.16
2023-05-07T18:28:25.694Z,101485.36
2023-05-07T18:30:59.444Z,101494.56
2023-05-07T18:33:33.129Z,101492.17
2023-05-07T18:36:07.458Z,101495.67
2023-05-07T18:38:43.459Z,101499.20
2023-05-07T18:41:18.846Z,101498.88
2023-05-07T18:43:54.164Z,101502.92
2023-05-07T18:46:30.634Z,101508.09
2023-05-07T18:49:05.051Z,101510.58
2023-05-07T18:51:39.438Z,101505.65
2023-05-07T18:54:13.844Z,101510.94
2023-05-07T18:56:48.959Z,101511.16
2023-05-07T18:59:22.923Z,101516.56
2023-05-07T19:01:57.667Z,101523.65
2023-05-07T19:04:31.585Z,101530.60
2023-05-07T19:07:06.956Z,101536.64
2023-05-07T19:09:47.945Z,101535.02
2023-05-07T19:12:25.586Z,101533.60
2023-05-07T19:15:00.955Z,101537.71
2023-05-07T19:17:35.869Z,101537.96
2023-05-07T19:20:12.136Z,101544.04
2023-05-07T19:22:47.273Z,101546.92
2023-05-07T19:25:21.992Z,101546.77
2023-05-07T19:27:57.017Z,101549.01
2023-05-07T19:30:31.517Z,101553.34
2023-05-07T19:33:05.683Z,101555.92
2023-05-07T19:35:40.424Z,101556.34
2023-05-07T19:38:14.450Z,101561.70
2023-05-07T19:40:49.551Z,101565.17
2023-05-07T19:43:23.971Z,101565.88
2023-05-07T19:45:58.467Z,101571.14
2023-05-07T19:48:34.150Z,101572.11
2023-05-07T19:51:08.191Z,101575.70
2023-05-07T19:53:43.432Z,101574.58
2023-05-07T19:56:17.738Z,101579.95
2023-05-07T19:58:53.376Z,101579.75
2023-05-07T20:01:29.181Z,101582.05
2023-05-07T20:04:03.279Z,101583.37
2023-05-07T20:06:39.865Z,101585.83
2023-05-07T20:09:14.470Z,101583.49
2023-05-07T20:11:49.209Z,101589.22
2023-05-07T20:14:22.977Z,101598.81
2023-05-07T20:16:56.398Z,101598.55
2023-05-07T20:19:30.234Z,101598.89
2023-05-07T20:22:03.671Z,101600.04
2023-05-07T20:24:41.309Z,101600.78
2023-05-07T20:27:16.325Z,101601.77
2023-05-07T20:29:50.167Z,101605.17
2023-05-07T20:32:24.400Z,101602.80
2023-05-07T20:34:58.002Z,101603.58
2023-05-07T20:37:31.453Z,101605.58
2023-05-07T20:40:05.447Z,101608.02
2023-05-07T20:42:39.191Z,101611.12
2023-05-07T20:45:14.532Z,101610.78
2023-05-07T20:47:48.303Z,101615.28
2023-05-07T20:50:23.709Z,101621.53
2023-05-07T20:52:57.756Z,101623.52
2023-05-07T20:55:31.858Z,101624.91
2023-05-07T20:58:05.326Z,101620.75
2023-05-07T21:00:39.694Z,101625.70
2023-05-07T21:03:13.609Z,101628.02
2023-05-07T21:05:52.174Z,101628.75
2023-05-07T21:08:26.323Z,101631.80
2023-05-07T21:10:59.918Z,101633.14
2023-05-07T21:13:33.343Z,101636.67
2023-05-07T21:16:07.562Z,101637.58
2023-05-07T21:18:41.030Z,101643.66
2023-05-07T21:21:16.769Z,101645.61
2023-05-07T21:23:50.623Z,101649.02
2023-05-07T21:26:24.398Z,101647.95
2023-05-07T21:28:58.332Z,101650.48
2023-05-07T21:31:31.964Z,101649.58
2023-05-07T21:34:08.197Z,101651.59
2023-05-07T21:36:42.161Z,101657.34
2023-05-07T21:39:15.586Z,101661.64
2023-05-07T21:41:49.366Z,101666.84
2023-05-07T21:44:23.287Z,101667.82
2023-05-07T21:46:57.116Z,101673.94
2023-05-07T21:49:30.548Z,101678.75
2023-05-07T21:52:03.699Z,101680.67
2023-05-07T21:54:37.010Z,101684.04
2023-05-07T21:57:10.805Z,101686.65
2023-05-07T21:59:44.078Z,101688.77
2023-05-07T22:02:17.256Z,101688.63
2023-05-07T22:04:51.300Z,101690.30
2023-05-07T22:07:27.362Z,101685.42
2023-05-07T22:10:01.287Z,101686.64
2023-05-07T22:12:35.695Z,101685.50
2023-05-07T22:15:11.309Z,101683.98
2023-05-07T22:17:45.183Z,101684.55
2023-05-07T22:20:18.981Z,101688.83
2023-05-07T22:22:54.330Z,101691.95
2023-05-07T22:25:28.078Z,101688.42
2023-05-07T22:28:02.240Z,101690.15
2023-05-07T22:30:35.671Z,101690.95
2023-05-07T22:33:08.975Z,101690.57
2023-05-07T22:35:42.864Z,101688.57
2023-05-07T22:38:16.555Z,101687.52
2023-05-07T22:40:50.239Z,101688.24
2023-05-07T22:43:23.838Z,101690.08
2023-05-07T22:46:03.087Z,101690.89
2023-05-07T22:48:36.715Z,101691.10
2023-05-07T22:51:14.008Z,101691.81
2023-05-07T22:53:48.069Z,101689.52
2023-05-07T22:56:21.354Z,101692.10
2023-05-07T22:58:55.030Z,101690.71
2023-05-07T23:01:28.497Z,101685.28
2023-05-07T23:04:02.228Z,101683.36
2023-05-07T23:06:36.018Z,101682.30
2023-05-07T23:09:10.071Z,101684.21
2023-05-07T23:11:43.588Z,101684.36
2023-05-07T23:14:17.177Z,101687.27
2023-05-07T23:16:51.353Z,101692.16
2023-05-07T23:19:25.108Z,101695.83
2023-05-07T23:21:58.889Z,101699.28
2023-05-07T23:24:32.300Z,101698.26
2023-05-07T23:27:08.151Z,101695.48
2023-05-07T23:29:41.587Z,101692.35
2023-05-07T23:32:15.042Z,101689.13
2023-05-07T23:34:50.866Z,101683.61
2023-05-07T23:37:24.698Z,101682.83
2023-05-07T23:39:58.697Z,101681.73
2023-05-07T23:42:32.664Z,101686.01
2023-05-07T23:45:07.255Z,101685.56
2023-05-07T23:47:41.368Z,101683.83
2023-05-07T23:50:15.554Z,101683.45
2023-05-07T23:52:49.484Z,101683.10
2023-05-07T23:55:23.135Z,101681.70
2023-05-07T23:57:56.514Z,101684.37
